Flight Track Log - Related Links

Times and Time Zones

All times are in EDT time to prevent confusion due to time zone crossing. See the C-GFMT flight status page for this flight to view local times or setup timezone preferences in your user account.

Time Position Orientation Groundspeed Altitude Reporting Facility
EDT Latitude Longitude Course Direction KTS MPH feet Rate Location/Type
Mon 02:24:14 PM 43.8667 -79.3833 276° West 70 81 1,500  Level Toronto Center
Mon 02:25:14 PM 43.8833 -79.4000 324° Northwest 110 127 2,100 650 Climbing Toronto Center
Mon 02:26:14 PM 43.9167 -79.4167 340° North 110 127 2,800 450 Climbing Toronto Center
Mon 02:27:14 PM 43.9333 -79.4500 305° West 110 127 3,000 100 Climbing Toronto Center
Mon 02:28:00 PM 43.8622 -79.3700 268° West  Level Estimated
Mon 02:28:14 PM 43.9667 -79.5000 313° West 130 150 3,000  Level Toronto Center
Mon 02:29:00 PM 43.8622 -79.3700 276° West  Level Estimated
Mon 02:29:14 PM 43.9833 -79.5167 324° Northwest 120 138 3,300  Level Toronto Center
Mon 02:30:14 PM 43.9667 -79.5667 245° Southwest 120 138 3,900 400 Climbing Toronto Center
Mon 02:31:14 PM 43.9667 -79.6167 270° West 120 138 4,100 100 Climbing Toronto Center
Mon 02:32:14 PM 43.9500 -79.6500 235° Southwest 130 150 4,100 -50 Level Toronto Center
Mon 02:33:14 PM 43.9500 -79.7000 270° West 130 150 4,000  Descending Toronto Center
Mon 02:34:14 PM 43.9333 -79.7500 245° Southwest 130 150 4,100 100 Climbing Toronto Center
Mon 02:35:14 PM 43.9333 -79.8167 270° West 130 150 4,200 -100 Climbing Toronto Center
Mon 02:36:14 PM 43.9333 -79.8667 270° West 140 161 3,900 -100 Descending Toronto Center
Mon 02:37:14 PM 43.9167 -79.9167 245° Southwest 130 150 4,000 50 Climbing Toronto Center
Mon 02:38:14 PM 43.9167 -79.9500 270° West 130 150 4,000  Level Toronto Center
Mon 02:39:14 PM 43.9000 -80.0000 245° Southwest 130 150 4,000 -50 Level Toronto Center
Mon 02:40:14 PM 43.8667 -80.0333 216° Southwest 140 161 3,900 50 Descending Toronto Center
Mon 02:41:14 PM 43.8333 -80.0500 200° South 130 150 4,100  Climbing Toronto Center
Mon 02:42:14 PM 43.8000 -80.0667 200° South 130 150 3,900  Descending Toronto Center
Mon 02:43:14 PM 43.7667 -80.1000 216° Southwest 130 150 4,100 100 Climbing Toronto Center
Mon 02:44:14 PM 43.7333 -80.1167 200° South 140 161 4,100  Level Toronto Center
Mon 02:45:14 PM 43.6833 -80.1333 194° South 140 161 4,100 150 Level Toronto Center
Mon 02:46:14 PM 43.6500 -80.1667 216° Southwest 140 161 4,400 450 Climbing Toronto Center
Mon 02:47:14 PM 43.6167 -80.1833 200° South 120 138 5,000 300 Climbing Toronto Center
Mon 02:48:14 PM 43.5833 -80.2167 216° Southwest 140 161 5,000  Level Toronto Center
Mon 02:49:14 PM 43.5500 -80.2333 200° South 140 161 5,000 50 Level Toronto Center
Mon 02:50:14 PM 43.5167 -80.2500 200° South 130 150 5,100 100 Climbing Toronto Center
Mon 02:51:14 PM 43.4833 -80.2833 216° Southwest 130 150 5,200  Climbing Toronto Center
Mon 02:52:14 PM 43.4833 -80.3000 270° West 120 138 5,100 -50 Descending Toronto Center
Mon 02:53:14 PM 43.5167 -80.2500 47° Northeast 140 161 5,100  Level Toronto Center
Mon 02:54:14 PM 43.5167 -80.2000 90° East 140 161 5,100 -50 Level Toronto Center
Mon 02:55:14 PM 43.5000 -80.2333 235° Southwest 120 138 5,000 -50 Descending Toronto Center
Mon 02:56:14 PM 43.4833 -80.2833 245° Southwest 120 138 5,000  Level Toronto Center
Mon 02:57:14 PM 43.5167 -80.2833 360° North 120 138 5,000 50 Level Toronto Center
Mon 02:58:14 PM 43.5333 -80.2333 65° Northeast 140 161 5,100  Climbing Toronto Center
Mon 02:59:14 PM 43.5000 -80.2333 180° South 120 138 5,000 -50 Descending Toronto Center
Mon 03:00:14 PM 43.4833 -80.2833 245° Southwest 120 138 5,000 50 Level Toronto Center
Mon 03:01:14 PM 43.5000 -80.3000 324° Northwest 120 138 5,100 -350 Climbing Toronto Center
Mon 03:02:14 PM 43.5333 -80.2833 20° North 140 161 4,300 -750 Descending Toronto Center
Mon 03:03:14 PM 43.5500 -80.2333 65° Northeast 140 161 3,600 -600 Descending Toronto Center
Mon 03:04:14 PM 43.5167 -80.2000 144° Southeast 120 138 3,100 -400 Descending Toronto Center
Mon 03:05:14 PM 43.5000 -80.2333 235° Southwest 110 127 2,800 -350 Descending Toronto Center
Mon 03:06:14 PM 43.4833 -80.2500 216° Southwest 90 104 2,400 -400 Descending Toronto Center
Mon 03:07:14 PM 43.4833 -80.3000 270° West 90 104 2,000 -450 Descending Toronto Center
Mon 03:08:14 PM 43.4667 -80.3167 216° Southwest 100 115 1,500 -99 Descending Toronto Center
Mon 03:09:15 PM 43.4500 -80.3667 245° Southwest 100 115 1,800 645 Climbing Toronto Center
Mon 03:10:15 PM 43.4333 -80.3833 216° Southwest 110 127 2,800 600 Climbing Toronto Center
Mon 03:11:15 PM 43.4167 -80.4333 245° Southwest 110 127 3,000 300 Climbing Toronto Center
Mon 03:12:15 PM 43.4000 -80.4667 235° Southwest 110 127 3,400 500 Climbing Toronto Center
Mon 03:13:15 PM 43.3667 -80.4667 180° South 110 127 4,000 300 Climbing Toronto Center
Mon 03:14:15 PM 43.3333 -80.4500 160° South 130 150 4,000  Level Toronto Center
Mon 03:15:15 PM 43.3000 -80.4167 144° Southeast 140 161 4,000 -50 Level Toronto Center
Mon 03:16:15 PM 43.3000 -80.3667 90° East 140 161 3,900  Descending Toronto Center
Mon 03:17:15 PM 43.3167 -80.3500 36° Northeast 140 161 4,000 100 Climbing Toronto Center
Mon 03:18:15 PM 43.3333 -80.3000 65° Northeast 130 150 4,100 50 Climbing Toronto Center
Mon 03:19:15 PM 43.3667 -80.2500 47° Northeast 140 161 4,100 -350 Level Toronto Center
Mon 03:20:15 PM 43.3833 -80.2000 65° Northeast 140 161 3,400 -400 Descending Toronto Center
Mon 03:21:15 PM 43.4000 -80.1667 55° Northeast 130 150 3,300 -150 Descending Toronto Center
Mon 03:22:15 PM 43.4333 -80.1167 47° Northeast 140 161 3,100 -50 Descending Toronto Center
Mon 03:23:15 PM 43.4500 -80.1000 36° Northeast 130 150 3,200  Climbing Toronto Center
Mon 03:24:15 PM 43.4833 -80.0500 47° Northeast 140 161 3,100 -50 Descending Toronto Center
Mon 03:25:15 PM 43.5167 -80.0667 340° North 130 150 3,100 -50 Level Toronto Center
Mon 03:26:15 PM 43.5333 -80.1000 305° West 120 138 3,000  Descending Toronto Center
Mon 03:27:15 PM 43.5333 -80.1167 270° West 90 104 3,100 50 Climbing Toronto Center
Mon 03:28:15 PM 43.5333 -80.1667 270° West 100 115 3,100 -50 Level Toronto Center
Mon 03:29:15 PM 43.5167 -80.1833 216° Southwest 100 115 3,000 -100 Descending Toronto Center
Mon 03:30:15 PM 43.5000 -80.2333 245° Southwest 90 104 2,900 -150 Descending Toronto Center
Mon 03:31:15 PM 43.5000 -80.2500 270° West 90 104 2,700 -400 Descending Toronto Center
Mon 03:32:15 PM 43.4833 -80.2833 235° Southwest 100 115 2,100 -550 Descending Toronto Center
Mon 03:33:15 PM 43.4667 -80.3167 235° Southwest 100 115 1,600 -100 Descending Toronto Center
Mon 03:34:15 PM 43.4667 -80.3500 270° West 90 104 1,900 450 Climbing Toronto Center
Mon 03:35:15 PM 43.5000 -80.3500 360° North 100 115 2,500 800 Climbing Toronto Center
Mon 03:36:15 PM 43.5333 -80.3500 360° North 120 138 3,500 850 Climbing Toronto Center
Mon 03:37:15 PM 43.5667 -80.3500 360° North 120 138 4,200 750 Climbing Toronto Center
Mon 03:38:15 PM 43.6000 -80.3167 36° Northeast 130 150 5,000 450 Climbing Toronto Center
Mon 03:39:15 PM 43.6333 -80.3000 20° North 140 161 5,100  Climbing Toronto Center
Mon 03:40:15 PM 43.6667 -80.2833 20° North 140 161 5,000  Descending Toronto Center
Mon 03:41:15 PM 43.7000 -80.2333 47° Northeast 130 150 5,100 50 Climbing Toronto Center
Mon 03:42:15 PM 43.7333 -80.2167 20° North 140 161 5,100 -50 Level Toronto Center
Mon 03:43:15 PM 43.7667 -80.2167 360° North 140 161 5,000 -50 Descending Toronto Center
Mon 03:44:15 PM 43.8000 -80.1833 36° Northeast 130 150 5,000  Level Toronto Center
Mon 03:45:15 PM 43.8333 -80.1667 20° North 130 150 5,000  Level Toronto Center
Mon 03:46:15 PM 43.8667 -80.1333 36° Northeast 130 150 5,000  Level Toronto Center
Mon 03:47:15 PM 43.9000 -80.1167 20° North 130 150 5,000 50 Level Toronto Center
Mon 03:48:15 PM 43.9000 -80.0500 90° East 140 161 5,100  Climbing Toronto Center
Mon 03:49:15 PM 43.9167 -80.0000 65° Northeast 150 173 5,000 -50 Descending Toronto Center
Mon 03:50:15 PM 43.9333 -79.9500 65° Northeast 150 173 5,000 50 Level Toronto Center
Mon 03:51:15 PM 43.9500 -79.8833 71° East 140 161 5,100 -350 Climbing Toronto Center
Mon 03:52:15 PM 43.9667 -79.8333 65° Northeast 150 173 4,300 -550 Descending Toronto Center
Mon 03:53:15 PM 43.9833 -79.8000 55° Northeast 150 173 4,000 -150 Descending Toronto Center
Mon 03:54:15 PM 44.0000 -79.7333 71° East 150 173 4,000 -150 Level Toronto Center
Mon 03:55:15 PM 44.0000 -79.6833 90° East 150 173 3,700 -500 Descending Toronto Center
Mon 03:56:15 PM 43.9833 -79.6167 109° East 160 184 3,000 -350 Descending Toronto Center
Mon 03:57:15 PM 43.9833 -79.5667 90° East 150 173 3,000 50 Level Toronto Center
Mon 03:58:15 PM 43.9667 -79.5167 115° Southeast 140 161 3,100  Climbing Toronto Center
Mon 03:59:15 PM 43.9500 -79.4500 109° East 150 173 3,000 -250 Descending Toronto Center
Mon 04:00:15 PM 43.9333 -79.4000 115° Southeast 140 161 2,600 -650 Descending Toronto Center
Mon 04:01:15 PM 43.9000 -79.3833 160° South 130 150 1,700 -450 Descending Toronto Center
Mon 04:02:15 PM 43.8833 -79.3500 125° Southeast 120 138 1,700  Level Toronto Center
Mon 04:03:15 PM 43.8500 -79.3167 144° Southeast 120 138 1,700 -150 Level Toronto Center
Mon 04:04:15 PM 43.8333 -79.3167 180° South 90 104 1,400 -450 Descending Toronto Center
Mon 04:05:15 PM 43.8500 -79.3333 324° Northwest 90 104 800 -600 Descending Toronto Center
Mon 04:07:00 PM 43.8622 -79.3700 North  Level Estimated

Login

Don't have an account? Register now (free) for customized features, flight alerts, and more!